createdAt,value
2022-08-20T00:01:01.875Z,9.719254
2022-08-20T00:01:55.407Z,9.719269
2022-08-20T00:02:55.357Z,9.719252
2022-08-20T00:03:55.334Z,9.719285
2022-08-20T00:04:55.336Z,9.719301
2022-08-20T00:05:56.812Z,9.719167
2022-08-20T00:06:55.303Z,9.719228
2022-08-20T00:07:55.519Z,9.719212
2022-08-20T00:08:55.291Z,9.719247
2022-08-20T00:09:55.290Z,9.719286
2022-08-20T00:10:55.824Z,9.719248
2022-08-20T00:11:56.253Z,9.719284
2022-08-20T00:12:55.234Z,9.719151
2022-08-20T00:13:56.242Z,9.719178
2022-08-20T00:14:55.241Z,9.719110
2022-08-20T00:15:55.225Z,9.719177
2022-08-20T00:16:55.207Z,9.719203
2022-08-20T00:17:55.284Z,9.719254
2022-08-20T00:18:55.194Z,9.719267
2022-08-20T00:19:55.196Z,9.719249
2022-08-20T00:20:55.164Z,9.719331
2022-08-20T00:21:57.927Z,9.719255
2022-08-20T00:22:55.137Z,9.719267
2022-08-20T00:23:55.128Z,9.719220
2022-08-20T00:24:55.138Z,9.719126
2022-08-20T00:25:55.118Z,9.719195
2022-08-20T00:26:55.104Z,9.719213
2022-08-20T00:27:55.264Z,9.719281
2022-08-20T00:28:55.130Z,9.719310
2022-08-20T00:29:55.085Z,9.719226
2022-08-20T00:30:55.074Z,9.719161
2022-08-20T00:31:55.052Z,9.719193
2022-08-20T00:32:55.062Z,9.719180
2022-08-20T00:33:55.072Z,9.719262
2022-08-20T00:34:55.025Z,9.719252
2022-08-20T00:35:55.010Z,9.719160
2022-08-20T00:36:55.001Z,9.719182
2022-08-20T00:37:58.684Z,9.719158
2022-08-20T00:38:57.109Z,9.719225
2022-08-20T00:39:55.022Z,9.719204
2022-08-20T00:40:54.957Z,9.719209
2022-08-20T00:41:54.972Z,9.719232
2022-08-20T00:42:54.955Z,9.719214
2022-08-20T00:43:54.968Z,9.719181
2022-08-20T00:44:55.925Z,9.719187
2022-08-20T00:45:54.922Z,9.719245
2022-08-20T00:46:54.901Z,9.719351
2022-08-20T00:47:54.990Z,9.719326
2022-08-20T00:48:54.905Z,9.719369
2022-08-20T00:49:54.876Z,9.719321
2022-08-20T00:50:54.875Z,9.719303
2022-08-20T00:51:54.888Z,9.719528
2022-08-20T00:52:54.853Z,9.719330
2022-08-20T00:53:54.838Z,9.719191
2022-08-20T00:54:54.849Z,9.719252
2022-08-20T00:55:54.812Z,9.719426
2022-08-20T00:56:54.801Z,9.719355
2022-08-20T00:58:01.138Z,9.719375
2022-08-20T00:58:55.791Z,9.719388
2022-08-20T01:02:22.634Z,9.719281
2022-08-20T01:03:22.556Z,9.719164
2022-08-20T01:04:22.591Z,9.719048
2022-08-20T01:05:22.558Z,9.719326
2022-08-20T01:06:23.529Z,9.719293
2022-08-20T01:07:22.502Z,9.719173
2022-08-20T01:08:22.492Z,9.719197
2022-08-20T01:09:33.440Z,9.719248
2022-08-20T01:10:22.515Z,9.719253
2022-08-20T01:11:22.486Z,9.719027
2022-08-20T01:12:22.486Z,9.719149
2022-08-20T01:13:22.442Z,9.719101
2022-08-20T01:14:22.439Z,9.719120
2022-08-20T01:15:22.432Z,9.719335
2022-08-20T01:16:23.454Z,9.719410
2022-08-20T01:17:22.405Z,9.719367
2022-08-20T01:18:22.410Z,9.719180
2022-08-20T01:19:29.409Z,9.719264
2022-08-20T01:20:22.370Z,9.719240
2022-08-20T01:21:22.395Z,9.719328
2022-08-20T01:22:22.344Z,9.719422
2022-08-20T01:23:22.345Z,9.719301
2022-08-20T01:24:22.332Z,9.719307
2022-08-20T01:25:22.328Z,9.719458
2022-08-20T01:26:22.323Z,9.719349
2022-08-20T01:27:22.361Z,9.719468
2022-08-20T01:28:22.293Z,9.719627
2022-08-20T01:29:22.288Z,9.719340
2022-08-20T01:30:22.279Z,9.719119
2022-08-20T01:31:22.271Z,9.719342
2022-08-20T01:32:22.295Z,9.719250
2022-08-20T01:33:22.248Z,9.719200
2022-08-20T01:34:22.262Z,9.719137
2022-08-20T01:35:22.239Z,9.719224
2022-08-20T01:36:22.219Z,9.719233
2022-08-20T01:37:22.201Z,9.719185
2022-08-20T01:38:22.204Z,9.719360
2022-08-20T01:39:22.215Z,9.719353
2022-08-20T01:40:22.165Z,9.719185
2022-08-20T01:41:28.068Z,9.719088
2022-08-20T01:42:22.158Z,9.719115
2022-08-20T01:43:22.150Z,9.719061
2022-08-20T01:44:22.140Z,9.719069
2022-08-20T01:45:27.863Z,9.719141
2022-08-20T01:46:22.119Z,9.719172
2022-08-20T01:47:22.105Z,9.719307
2022-08-20T01:48:22.104Z,9.719268
2022-08-20T01:49:23.181Z,9.719120
2022-08-20T01:50:22.098Z,9.719202
2022-08-20T01:51:22.065Z,9.719191
2022-08-20T01:52:22.051Z,9.719261
2022-08-20T01:53:22.052Z,9.719172
2022-08-20T01:54:22.044Z,9.719088
2022-08-20T01:55:22.048Z,9.719077
2022-08-20T01:56:22.048Z,9.719241
2022-08-20T01:57:22.015Z,9.719223
2022-08-20T01:58:22.003Z,9.719264
2022-08-20T01:59:21.983Z,9.719277
2022-08-20T02:00:22.180Z,9.719377
2022-08-20T02:01:22.076Z,9.719310
2022-08-20T02:02:21.949Z,9.719287
2022-08-20T02:03:21.945Z,9.719427
2022-08-20T02:04:21.939Z,9.719386
2022-08-20T02:05:21.925Z,9.719522
2022-08-20T02:06:21.907Z,9.719446
2022-08-20T02:07:21.937Z,9.719337
2022-08-20T02:08:21.891Z,9.719300
2022-08-20T02:09:21.889Z,9.719475
2022-08-20T02:10:21.878Z,9.719495
2022-08-20T02:11:21.861Z,9.719424
2022-08-20T02:12:21.883Z,9.719565
2022-08-20T02:13:22.871Z,9.719723
2022-08-20T02:14:21.840Z,9.719456
2022-08-20T02:15:30.848Z,9.719299
2022-08-20T02:16:22.813Z,9.719732
2022-08-20T02:17:21.816Z,9.719729
2022-08-20T02:18:21.794Z,9.719331
2022-08-20T02:19:21.780Z,9.719316
2022-08-20T02:20:21.770Z,9.719540
2022-08-20T02:21:21.762Z,9.719475
2022-08-20T02:22:21.763Z,9.719345
2022-08-20T02:23:21.752Z,9.719629
2022-08-20T02:24:21.739Z,9.719357
2022-08-20T02:25:22.872Z,9.719394
2022-08-20T02:26:21.711Z,9.719214
2022-08-20T02:27:21.695Z,9.719216
2022-08-20T02:28:21.703Z,9.719171
2022-08-20T02:29:21.682Z,9.719168
2022-08-20T02:30:27.888Z,9.719336
2022-08-20T02:31:21.657Z,9.719122
2022-08-20T02:32:32.092Z,9.718649
2022-08-20T02:33:24.351Z,9.718736
2022-08-20T02:34:23.036Z,9.718977
2022-08-20T02:35:21.618Z,9.718966
2022-08-20T02:36:21.618Z,9.719105
2022-08-20T02:37:21.625Z,9.719271
2022-08-20T02:38:21.610Z,9.718804
2022-08-20T02:39:21.571Z,9.718908
2022-08-20T02:40:27.354Z,9.719169
2022-08-20T02:41:22.582Z,9.719387
2022-08-20T02:42:21.549Z,9.719365
2022-08-20T02:43:21.562Z,9.719188
2022-08-20T02:44:21.525Z,9.719173
2022-08-20T02:45:21.513Z,9.719027
2022-08-20T02:46:21.539Z,9.719195
2022-08-20T02:47:21.491Z,9.719242
2022-08-20T02:48:21.633Z,9.719097
2022-08-20T02:49:21.488Z,9.719130
2022-08-20T02:50:21.496Z,9.719129
2022-08-20T02:51:30.362Z,9.719217
2022-08-20T02:52:22.450Z,9.719177
2022-08-20T02:53:21.443Z,9.719179
2022-08-20T02:54:21.432Z,9.719092
2022-08-20T02:55:27.263Z,9.719144
2022-08-20T02:56:22.418Z,9.719186
2022-08-20T02:57:21.393Z,9.719149
2022-08-20T02:58:21.380Z,9.719126
2022-08-20T02:59:21.377Z,9.719101
2022-08-20T03:00:21.395Z,9.719070
2022-08-20T03:01:21.380Z,9.719152
2022-08-20T03:02:21.324Z,9.719132
2022-08-20T03:03:22.345Z,9.719171
2022-08-20T03:04:21.332Z,9.719227
2022-08-20T03:05:21.336Z,9.719255
2022-08-20T03:06:21.304Z,9.719211
2022-08-20T03:07:21.290Z,9.719174
2022-08-20T03:08:21.301Z,9.719189
2022-08-20T03:09:21.269Z,9.719227
2022-08-20T03:10:21.289Z,9.719252
2022-08-20T03:11:21.257Z,9.719273
2022-08-20T03:12:21.269Z,9.719197
2022-08-20T03:13:21.231Z,9.719170
2022-08-20T03:14:21.219Z,9.719132
2022-08-20T03:15:21.219Z,9.719174
2022-08-20T03:16:21.203Z,9.719196
2022-08-20T03:17:21.213Z,9.719172
2022-08-20T03:18:21.177Z,9.719181
2022-08-20T03:19:21.170Z,9.719199
2022-08-20T03:20:23.849Z,9.719090
2022-08-20T03:21:21.152Z,9.719152
2022-08-20T03:22:21.175Z,9.719056
2022-08-20T03:23:21.134Z,9.719131
2022-08-20T03:24:21.121Z,9.719096
2022-08-20T03:25:21.121Z,9.719151
2022-08-20T03:26:21.111Z,9.719032
2022-08-20T03:27:21.125Z,9.718989
2022-08-20T03:28:21.084Z,9.719005
2022-08-20T03:29:21.073Z,9.719167
2022-08-20T03:30:21.058Z,9.719208
2022-08-20T03:31:21.045Z,9.719146
2022-08-20T03:32:21.058Z,9.719137
2022-08-20T03:33:21.027Z,9.719157
2022-08-20T03:34:21.039Z,9.719099
2022-08-20T03:35:21.013Z,9.719152
2022-08-20T03:36:22.292Z,9.719126
2022-08-20T03:37:21.992Z,9.719248
2022-08-20T03:38:29.225Z,9.719253
2022-08-20T03:39:21.986Z,9.719174
2022-08-20T03:40:20.987Z,9.719268
2022-08-20T03:41:20.961Z,9.719117
2022-08-20T03:42:20.943Z,9.718991
2022-08-20T03:43:20.930Z,9.719066
2022-08-20T03:44:20.920Z,9.719000
2022-08-20T03:45:20.969Z,9.719109
2022-08-20T03:46:23.297Z,9.719078
2022-08-20T03:47:20.914Z,9.719025
2022-08-20T03:48:20.891Z,9.718998
2022-08-20T03:49:20.882Z,9.719006
2022-08-20T03:50:22.901Z,9.719144
2022-08-20T03:51:20.892Z,9.719291
2022-08-20T03:52:20.859Z,9.719230
2022-08-20T03:53:20.824Z,9.718917
2022-08-20T03:54:20.888Z,9.719110
2022-08-20T03:55:20.805Z,9.719187
2022-08-20T03:56:20.791Z,9.719157
2022-08-20T03:57:21.817Z,9.719229
2022-08-20T03:58:20.774Z,9.719194
2022-08-20T03:59:20.770Z,9.719048
2022-08-20T04:00:20.780Z,9.719114
2022-08-20T04:01:44.281Z,9.719198
2022-08-20T04:02:21.766Z,9.719131
2022-08-20T04:03:20.760Z,9.719021
2022-08-20T04:04:20.726Z,9.719143
2022-08-20T04:05:20.704Z,9.719210
2022-08-20T04:06:20.716Z,9.719112
2022-08-20T04:07:20.736Z,9.719101
2022-08-20T04:08:20.680Z,9.719167
2022-08-20T04:09:20.684Z,9.719196
2022-08-20T04:10:20.659Z,9.719185
2022-08-20T04:11:21.648Z,9.719225
2022-08-20T04:12:20.666Z,9.719224
2022-08-20T04:13:20.632Z,9.719131
2022-08-20T04:14:20.741Z,9.719094
2022-08-20T04:15:20.609Z,9.719138
2022-08-20T04:16:20.601Z,9.719309
2022-08-20T04:17:20.588Z,9.719255
2022-08-20T04:18:20.621Z,9.719190
2022-08-20T04:19:20.573Z,9.719261
2022-08-20T04:20:20.565Z,9.719142
2022-08-20T04:21:20.555Z,9.719168
2022-08-20T04:22:20.538Z,9.719164
2022-08-20T04:23:20.543Z,9.719149
2022-08-20T04:24:27.493Z,9.719089
2022-08-20T04:25:21.517Z,9.719132
2022-08-20T04:26:20.503Z,9.719159
2022-08-20T04:27:20.515Z,9.719111
2022-08-20T04:28:20.480Z,9.719198
2022-08-20T04:29:20.463Z,9.719214
2022-08-20T04:30:20.456Z,9.719049
2022-08-20T04:31:24.878Z,9.719082
2022-08-20T04:32:21.459Z,9.719158
2022-08-20T04:33:22.667Z,9.719201
2022-08-20T04:34:21.420Z,9.719243
2022-08-20T04:35:20.411Z,9.719049
2022-08-20T04:36:20.398Z,9.719133
2022-08-20T04:37:20.418Z,9.719226
2022-08-20T04:38:20.372Z,9.719202
2022-08-20T04:39:20.370Z,9.719174
2022-08-20T04:40:20.396Z,9.719142
2022-08-20T04:41:22.944Z,9.719127
2022-08-20T04:42:20.346Z,9.719145
2022-08-20T04:43:20.338Z,9.719227
2022-08-20T04:44:20.316Z,9.719193
2022-08-20T04:45:20.329Z,9.719166
2022-08-20T04:46:20.301Z,9.719217
2022-08-20T04:47:20.290Z,9.719231
2022-08-20T04:48:21.275Z,9.719245
2022-08-20T04:49:20.297Z,9.719238
2022-08-20T04:50:20.260Z,9.719181
2022-08-20T04:51:23.256Z,9.719224
2022-08-20T04:52:20.240Z,9.718982
2022-08-20T04:53:25.260Z,9.719061
2022-08-20T04:54:21.232Z,9.719012
2022-08-20T04:55:20.207Z,9.719114
2022-08-20T04:56:20.232Z,9.718947
2022-08-20T04:57:20.185Z,9.719072
2022-08-20T04:58:20.185Z,9.719206
2022-08-20T04:59:20.172Z,9.719116
2022-08-20T05:00:20.166Z,9.719092
2022-08-20T05:01:20.218Z,9.719179
2022-08-20T05:02:20.180Z,9.719122
2022-08-20T05:03:20.129Z,9.719117
2022-08-20T05:04:20.119Z,9.719291
2022-08-20T05:05:20.109Z,9.719068
2022-08-20T05:06:20.115Z,9.719418
2022-08-20T05:07:20.092Z,9.719395
2022-08-20T05:08:20.439Z,9.719397
2022-08-20T05:09:20.069Z,9.719448
2022-08-20T05:10:20.064Z,9.719389
2022-08-20T05:11:33.773Z,9.719045
2022-08-20T05:12:21.033Z,9.718911
2022-08-20T05:13:22.175Z,9.719258
2022-08-20T05:14:20.021Z,9.719263
2022-08-20T05:15:20.019Z,9.719156
2022-08-20T05:16:20.024Z,9.719132
2022-08-20T05:17:19.989Z,9.719049
2022-08-20T05:18:20.036Z,9.718949
2022-08-20T05:19:19.969Z,9.719093
2022-08-20T05:20:19.985Z,9.719238
2022-08-20T05:21:19.943Z,9.719624
2022-08-20T05:22:19.964Z,9.719393
2022-08-20T05:23:19.938Z,9.719202
2022-08-20T05:24:19.943Z,9.719091
2022-08-20T05:25:19.912Z,9.719131
2022-08-20T05:26:19.917Z,9.719051
2022-08-20T05:27:24.726Z,9.719148
2022-08-20T05:28:20.883Z,9.719219
2022-08-20T05:29:19.898Z,9.719124
2022-08-20T05:30:19.859Z,9.719126
2022-08-20T05:31:19.839Z,9.719135
2022-08-20T05:32:19.845Z,9.719216
2022-08-20T05:33:19.817Z,9.719254
2022-08-20T05:34:19.844Z,9.719192
2022-08-20T05:35:19.820Z,9.719207
2022-08-20T05:36:19.801Z,9.719181
2022-08-20T05:37:19.808Z,9.719139
2022-08-20T05:38:19.778Z,9.719160
2022-08-20T05:39:19.766Z,9.719206
2022-08-20T05:40:19.817Z,9.719179
2022-08-20T05:41:29.228Z,9.719204
2022-08-20T05:42:20.741Z,9.719208
2022-08-20T05:43:19.734Z,9.719212
2022-08-20T05:44:40.526Z,9.719187
2022-08-20T05:45:19.741Z,9.719208
2022-08-20T05:46:19.713Z,9.719130
2022-08-20T05:47:19.692Z,9.719162
2022-08-20T05:48:19.692Z,9.719231
2022-08-20T05:49:19.697Z,9.719172
2022-08-20T05:50:19.798Z,9.719184
2022-08-20T05:51:19.648Z,9.719241
2022-08-20T05:52:19.654Z,9.719230
2022-08-20T05:53:19.637Z,9.719120
2022-08-20T05:54:19.645Z,9.719193
2022-08-20T05:55:19.610Z,9.719117
2022-08-20T05:56:19.606Z,9.719147
2022-08-20T05:57:20.592Z,9.719149
2022-08-20T05:58:19.592Z,9.719064
2022-08-20T05:59:23.927Z,9.719114
2022-08-20T06:00:20.564Z,9.719199
2022-08-20T06:01:19.601Z,9.719193
2022-08-20T06:02:19.535Z,9.719316
2022-08-20T06:03:19.533Z,9.719303
2022-08-20T06:04:19.555Z,9.719241
2022-08-20T06:05:19.508Z,9.719240
2022-08-20T06:06:45.938Z,9.719173
2022-08-20T06:07:20.502Z,9.719052
2022-08-20T06:08:19.497Z,9.719384
2022-08-20T06:09:28.632Z,9.719422
2022-08-20T06:10:20.469Z,9.719243
2022-08-20T06:11:19.456Z,9.719065
2022-08-20T06:12:19.447Z,9.718955
2022-08-20T06:13:19.437Z,9.718870
2022-08-20T06:14:19.455Z,9.718906
2022-08-20T06:15:19.414Z,9.718643
2022-08-20T06:16:19.401Z,9.718911
2022-08-20T06:17:22.174Z,9.718925
2022-08-20T06:18:28.071Z,9.719140
2022-08-20T06:19:24.201Z,9.719203
2022-08-20T06:20:20.383Z,9.719062
2022-08-20T06:21:19.376Z,9.719072
2022-08-20T06:22:22.972Z,9.719233
2022-08-20T06:23:20.335Z,9.719178
2022-08-20T06:24:19.322Z,9.719208
2022-08-20T06:25:19.371Z,9.719243
2022-08-20T06:26:24.182Z,9.719156
2022-08-20T06:27:20.298Z,9.719154
2022-08-20T06:28:19.283Z,9.719090
2022-08-20T06:29:19.280Z,9.719069
2022-08-20T06:30:19.288Z,9.719157
2022-08-20T06:31:19.269Z,9.718947
2022-08-20T06:32:19.268Z,9.719102
2022-08-20T06:33:19.235Z,9.719085
2022-08-20T06:34:19.209Z,9.719140
2022-08-20T06:35:20.297Z,9.719149
2022-08-20T06:36:19.268Z,9.719193
2022-08-20T06:37:19.218Z,9.719181
2022-08-20T06:38:19.197Z,9.719172
2022-08-20T06:39:19.181Z,9.719192
2022-08-20T06:40:19.227Z,9.719188
2022-08-20T06:41:19.165Z,9.719187
2022-08-20T06:42:20.828Z,9.719132
2022-08-20T06:43:19.157Z,9.719068
2022-08-20T06:44:19.154Z,9.719085
2022-08-20T06:45:19.123Z,9.719100
2022-08-20T06:46:19.124Z,9.719124
2022-08-20T06:47:19.097Z,9.719098
2022-08-20T06:48:19.107Z,9.719049
2022-08-20T06:49:19.078Z,9.719047
2022-08-20T06:50:19.075Z,9.719118
2022-08-20T06:51:19.064Z,9.719134
2022-08-20T06:52:19.062Z,9.719164
2022-08-20T06:53:19.069Z,9.719158
2022-08-20T06:54:19.035Z,9.719143
2022-08-20T06:55:19.020Z,9.719169
2022-08-20T06:56:19.010Z,9.719220
2022-08-20T06:57:18.994Z,9.719134
2022-08-20T06:58:36.743Z,9.719089
2022-08-20T06:59:18.982Z,9.719050
2022-08-20T07:00:44.942Z,9.719111
2022-08-20T07:01:19.010Z,9.719104
2022-08-20T07:02:18.955Z,9.719107
2022-08-20T07:03:18.930Z,9.719096
2022-08-20T07:04:18.924Z,9.719105
2022-08-20T07:05:18.927Z,9.719054
2022-08-20T07:06:18.940Z,9.719020
2022-08-20T07:07:18.930Z,9.719044
2022-08-20T07:08:18.879Z,9.719132
2022-08-20T07:09:18.876Z,9.719104
2022-08-20T07:10:18.883Z,9.719102
2022-08-20T07:11:19.668Z,9.719131
2022-08-20T07:12:18.875Z,9.719144
2022-08-20T07:13:18.875Z,9.719159
2022-08-20T07:14:18.822Z,9.719187
2022-08-20T07:15:18.815Z,9.719156
2022-08-20T07:16:18.808Z,9.719032
2022-08-20T07:17:18.806Z,9.718983
2022-08-20T07:18:28.227Z,9.719085
2022-08-20T07:19:18.771Z,9.719083
2022-08-20T07:20:18.783Z,9.719168
2022-08-20T07:21:18.768Z,9.719232
2022-08-20T07:22:18.786Z,9.719254
2022-08-20T07:23:18.738Z,9.719122
2022-08-20T07:24:18.722Z,9.719028
2022-08-20T07:25:18.863Z,9.719109
2022-08-20T07:26:18.743Z,9.719209
2022-08-20T07:27:18.692Z,9.719247
2022-08-20T07:28:18.678Z,9.719176
2022-08-20T07:29:21.653Z,9.719110
2022-08-20T07:30:18.664Z,9.719177
2022-08-20T07:31:20.428Z,9.719168
2022-08-20T07:32:18.665Z,9.719135
2022-08-20T07:33:18.637Z,9.719326
2022-08-20T07:34:19.625Z,9.719320
2022-08-20T07:35:18.666Z,9.719263
2022-08-20T07:36:18.596Z,9.719227
2022-08-20T07:37:18.612Z,9.719255
2022-08-20T07:38:18.581Z,9.719355
2022-08-20T07:39:18.588Z,9.719332
2022-08-20T07:40:21.294Z,9.719315
2022-08-20T07:41:18.559Z,9.719285
2022-08-20T07:42:18.562Z,9.719352
2022-08-20T07:43:18.549Z,9.719289
2022-08-20T07:44:18.537Z,9.719304
2022-08-20T07:45:18.526Z,9.719322
2022-08-20T07:46:20.569Z,9.719351
2022-08-20T07:47:18.527Z,9.719366
2022-08-20T07:48:30.935Z,9.719174
2022-08-20T07:49:19.480Z,9.719233
2022-08-20T07:50:18.480Z,9.719159
2022-08-20T07:51:18.451Z,9.719174
2022-08-20T07:52:18.456Z,9.719193
2022-08-20T07:53:18.459Z,9.719191
2022-08-20T07:54:18.431Z,9.719204
2022-08-20T07:55:18.395Z,9.719244
2022-08-20T07:56:18.427Z,9.719184
2022-08-20T07:57:18.397Z,9.719201
2022-08-20T07:58:18.413Z,9.719168
2022-08-20T07:59:18.379Z,9.719107
2022-08-20T08:00:18.367Z,9.719081
2022-08-20T08:01:18.414Z,9.719051
2022-08-20T08:02:18.373Z,9.719103
2022-08-20T08:03:18.332Z,9.719022
2022-08-20T08:04:18.326Z,9.719012
2022-08-20T08:05:18.315Z,9.719082
2022-08-20T08:06:28.342Z,9.719245
2022-08-20T08:07:19.341Z,9.719318
2022-08-20T08:08:18.302Z,9.719110
2022-08-20T08:09:18.287Z,9.719013
2022-08-20T08:10:18.394Z,9.718907
2022-08-20T08:11:18.242Z,9.718772
2022-08-20T08:12:18.236Z,9.719064
2022-08-20T08:13:18.249Z,9.719176
2022-08-20T08:14:18.242Z,9.719166
2022-08-20T08:15:18.214Z,9.719250
2022-08-20T08:16:18.201Z,9.719282
2022-08-20T08:17:18.188Z,9.719115
2022-08-20T08:18:18.173Z,9.718974
2022-08-20T08:19:18.213Z,9.719149
2022-08-20T08:20:18.172Z,9.719065
2022-08-20T08:21:18.158Z,9.719103
2022-08-20T08:22:18.161Z,9.719134
2022-08-20T08:23:25.457Z,9.719106
2022-08-20T08:24:21.719Z,9.719247
2022-08-20T08:25:19.105Z,9.719229
2022-08-20T08:26:19.105Z,9.719307
2022-08-20T08:27:18.115Z,9.719151
2022-08-20T08:28:18.097Z,9.719336
2022-08-20T08:29:18.066Z,9.718966
2022-08-20T08:30:18.071Z,9.719205
2022-08-20T08:31:18.053Z,9.719491
2022-08-20T08:32:18.096Z,9.719399
2022-08-20T08:33:18.045Z,9.719618
2022-08-20T08:34:18.047Z,9.719574
2022-08-20T08:35:18.044Z,9.719377
2022-08-20T08:36:18.004Z,9.719132
2022-08-20T08:37:18.016Z,9.719336
2022-08-20T08:38:17.982Z,9.719275
2022-08-20T08:39:17.988Z,9.719439
2022-08-20T08:40:17.995Z,9.719440
2022-08-20T08:41:17.984Z,9.719444
2022-08-20T08:42:17.942Z,9.719399
2022-08-20T08:43:21.222Z,9.719125
2022-08-20T08:44:17.937Z,9.719307
2022-08-20T08:45:17.912Z,9.719304
2022-08-20T08:46:17.899Z,9.719349
2022-08-20T08:47:17.889Z,9.719296
2022-08-20T08:48:18.880Z,9.719213
2022-08-20T08:49:17.887Z,9.719235
2022-08-20T08:50:24.931Z,9.719213
2022-08-20T08:51:17.851Z,9.719163
2022-08-20T08:52:17.858Z,9.719171
2022-08-20T08:53:17.882Z,9.719285
2022-08-20T08:54:17.809Z,9.719390
2022-08-20T08:55:17.819Z,9.719283
2022-08-20T08:56:17.783Z,9.719325
2022-08-20T08:57:17.812Z,9.719293
2022-08-20T08:58:17.798Z,9.719443
2022-08-20T08:59:17.784Z,9.719438
2022-08-20T09:00:17.774Z,9.719436
2022-08-20T09:01:55.847Z,9.719459
2022-08-20T09:02:17.882Z,9.719378
2022-08-20T09:03:17.731Z,9.719146
2022-08-20T09:04:17.723Z,9.719234
2022-08-20T09:05:17.719Z,9.719298
2022-08-20T09:06:18.035Z,9.719432
2022-08-20T09:07:17.686Z,9.719462
2022-08-20T09:08:17.691Z,9.719361
2022-08-20T09:09:17.661Z,9.719491
2022-08-20T09:10:17.778Z,9.719488
2022-08-20T09:11:18.634Z,9.719393
2022-08-20T09:12:17.648Z,9.719407
2022-08-20T09:13:17.656Z,9.719279
2022-08-20T09:14:17.640Z,9.719276
2022-08-20T09:15:17.614Z,9.719377
2022-08-20T09:16:17.601Z,9.719470
2022-08-20T09:17:17.598Z,9.719393
2022-08-20T09:18:17.581Z,9.719337
2022-08-20T09:19:17.569Z,9.719129
2022-08-20T09:20:17.587Z,9.719153
2022-08-20T09:21:17.545Z,9.719166
2022-08-20T09:22:17.541Z,9.719202
2022-08-20T09:23:17.531Z,9.719377
2022-08-20T09:24:17.541Z,9.719299
2022-08-20T09:25:17.541Z,9.719153
2022-08-20T09:26:17.494Z,9.719396
2022-08-20T09:27:17.480Z,9.719357
2022-08-20T09:28:17.485Z,9.719172
2022-08-20T09:29:17.464Z,9.719202
2022-08-20T09:30:17.475Z,9.719387
2022-08-20T09:31:18.283Z,9.719424
2022-08-20T09:32:17.458Z,9.719311
2022-08-20T09:33:17.431Z,9.719228
2022-08-20T09:34:17.426Z,9.719213
2022-08-20T09:35:17.423Z,9.719280
2022-08-20T09:36:29.284Z,9.719440
2022-08-20T09:37:18.398Z,9.719452
2022-08-20T09:38:17.362Z,9.719407
2022-08-20T09:39:17.385Z,9.719206
2022-08-20T09:40:21.314Z,9.719304
2022-08-20T09:41:17.343Z,9.719349
2022-08-20T09:42:17.331Z,9.719430
2022-08-20T09:43:17.317Z,9.719397
2022-08-20T09:44:17.348Z,9.719384
2022-08-20T09:45:17.297Z,9.719295
2022-08-20T09:46:17.307Z,9.719325
2022-08-20T09:47:17.289Z,9.719329
2022-08-20T09:48:17.278Z,9.719341
2022-08-20T09:49:17.297Z,9.719473
2022-08-20T09:50:17.253Z,9.719480
2022-08-20T09:51:17.257Z,9.719513
2022-08-20T09:52:17.266Z,9.719544
2022-08-20T09:53:17.231Z,9.719433
2022-08-20T09:54:17.224Z,9.719438
2022-08-20T09:55:17.225Z,9.719365
2022-08-20T09:56:17.219Z,9.719295
2022-08-20T09:57:17.207Z,9.719321
2022-08-20T09:58:17.189Z,9.719318
2022-08-20T09:59:17.201Z,9.719316
2022-08-20T10:00:17.155Z,9.719228
2022-08-20T10:01:17.204Z,9.719257
2022-08-20T10:02:17.148Z,9.719156
2022-08-20T10:03:17.150Z,9.719205
2022-08-20T10:04:17.155Z,9.719306
2022-08-20T10:05:17.114Z,9.719350
2022-08-20T10:06:17.103Z,9.719290
2022-08-20T10:07:17.100Z,9.719260
2022-08-20T10:08:17.110Z,9.719276
2022-08-20T10:09:17.065Z,9.719311
2022-08-20T10:10:17.063Z,9.719408
2022-08-20T10:11:17.911Z,9.719383
2022-08-20T10:12:17.065Z,9.719396
2022-08-20T10:13:17.044Z,9.719334
2022-08-20T10:14:17.020Z,9.719383
2022-08-20T10:15:17.032Z,9.719410
2022-08-20T10:16:17.026Z,9.719407
2022-08-20T10:17:16.991Z,9.719432
2022-08-20T10:18:16.995Z,9.719470
2022-08-20T10:19:17.000Z,9.719432
2022-08-20T10:20:16.996Z,9.719400
2022-08-20T10:21:16.997Z,9.719469
2022-08-20T10:22:16.961Z,9.719533
2022-08-20T10:23:16.934Z,9.719499
2022-08-20T10:24:16.931Z,9.719359
2022-08-20T10:25:16.920Z,9.719425
2022-08-20T10:26:16.927Z,9.719472
2022-08-20T10:27:16.917Z,9.719399
2022-08-20T10:28:16.892Z,9.719312
2022-08-20T10:29:16.909Z,9.719167
2022-08-20T10:30:16.875Z,9.719147
2022-08-20T10:31:16.853Z,9.719075
2022-08-20T10:32:16.964Z,9.719120
2022-08-20T10:33:16.840Z,9.719149
2022-08-20T10:34:16.854Z,9.718924
2022-08-20T10:35:16.821Z,9.719009
2022-08-20T10:36:16.843Z,9.719298
2022-08-20T10:37:16.812Z,9.719613
2022-08-20T10:38:16.787Z,9.719210
2022-08-20T10:39:16.776Z,9.719229
2022-08-20T10:40:16.839Z,9.719363
2022-08-20T10:41:16.789Z,9.719594
2022-08-20T10:42:16.776Z,9.719453
2022-08-20T10:43:16.745Z,9.719243
2022-08-20T10:44:16.761Z,9.718844
2022-08-20T10:45:16.724Z,9.718804
2022-08-20T10:46:16.701Z,9.718743
2022-08-20T10:47:16.709Z,9.718939
2022-08-20T10:48:20.917Z,9.718924
2022-08-20T10:49:16.700Z,9.718764
2022-08-20T10:50:16.673Z,9.719043
2022-08-20T10:51:16.672Z,9.719632
2022-08-20T10:52:16.653Z,9.719408
2022-08-20T10:53:16.640Z,9.719115
2022-08-20T10:54:16.686Z,9.719233
2022-08-20T10:55:16.665Z,9.719029
2022-08-20T10:56:16.635Z,9.718709
2022-08-20T10:57:16.606Z,9.718969
2022-08-20T10:58:16.741Z,9.718960
2022-08-20T10:59:16.761Z,9.719215
2022-08-20T11:00:16.600Z,9.718944
2022-08-20T11:01:32.539Z,9.719237
2022-08-20T11:02:17.617Z,9.719102
2022-08-20T11:03:16.555Z,9.719328
2022-08-20T11:04:16.540Z,9.719315
2022-08-20T11:05:16.534Z,9.719121
2022-08-20T11:06:16.553Z,9.719044
2022-08-20T11:07:16.506Z,9.719173
2022-08-20T11:08:26.866Z,9.719246
2022-08-20T11:09:17.494Z,9.719121
2022-08-20T11:10:16.484Z,9.719128
2022-08-20T11:11:16.479Z,9.719038
2022-08-20T11:12:16.486Z,9.718994
2022-08-20T11:13:16.455Z,9.719011
2022-08-20T11:14:16.441Z,9.719032
2022-08-20T11:15:16.422Z,9.719205
2022-08-20T11:16:16.420Z,9.719119
2022-08-20T11:17:16.424Z,9.719049
2022-08-20T11:18:16.398Z,9.719128
2022-08-20T11:19:16.385Z,9.719253
2022-08-20T11:20:16.386Z,9.719175
2022-08-20T11:21:16.357Z,9.719195
2022-08-20T11:22:16.352Z,9.719170
2022-08-20T11:23:16.373Z,9.719111
2022-08-20T11:24:16.341Z,9.719141
2022-08-20T11:25:16.328Z,9.719208
2022-08-20T11:26:16.309Z,9.719143
2022-08-20T11:27:16.308Z,9.719069
2022-08-20T11:28:16.330Z,9.719104
2022-08-20T11:29:17.284Z,9.719173
2022-08-20T11:30:16.284Z,9.719225
2022-08-20T11:31:16.262Z,9.719146
2022-08-20T11:32:16.251Z,9.718946
2022-08-20T11:33:16.242Z,9.718826
2022-08-20T11:34:16.267Z,9.719099
2022-08-20T11:35:41.765Z,9.719100
2022-08-20T11:36:18.226Z,9.719127
2022-08-20T11:37:16.203Z,9.719088
2022-08-20T11:38:17.201Z,9.719196
2022-08-20T11:39:16.225Z,9.719254
2022-08-20T11:40:16.215Z,9.719150
2022-08-20T11:41:16.181Z,9.719131
2022-08-20T11:42:16.164Z,9.719247
2022-08-20T11:43:17.277Z,9.719120
2022-08-20T11:44:20.133Z,9.719183
2022-08-20T11:45:17.129Z,9.718991
2022-08-20T11:46:16.120Z,9.719129
2022-08-20T11:47:16.113Z,9.719163